createdAt,value
2018-11-25T00:00:26.147Z,2.63
2018-11-25T00:01:29.520Z,4.90
2018-11-25T00:02:32.953Z,1.80
2018-11-25T00:03:36.318Z,2.43
2018-11-25T00:04:39.763Z,5.13
2018-11-25T00:05:43.185Z,2.23
2018-11-25T00:06:46.770Z,2.03
2018-11-25T00:07:50.366Z,2.27
2018-11-25T00:08:53.753Z,1.90
2018-11-25T00:09:57.158Z,1.63
2018-11-25T00:11:00.547Z,2.87
2018-11-25T00:12:03.955Z,2.03
2018-11-25T00:13:07.334Z,1.50
2018-11-25T00:14:10.890Z,2.20
2018-11-25T00:15:14.344Z,1.80
2018-11-25T00:16:17.882Z,3.07
2018-11-25T00:17:21.741Z,5.93
2018-11-25T00:18:25.200Z,1.70
2018-11-25T00:19:28.588Z,1.63
2018-11-25T00:20:32.038Z,2.10
2018-11-25T00:21:35.456Z,2.50
2018-11-25T00:22:38.911Z,3.80
2018-11-25T00:23:42.293Z,2.60
2018-11-25T00:24:45.839Z,1.80
2018-11-25T00:25:49.301Z,1.67
2018-11-25T00:26:52.681Z,2.60
2018-11-25T00:27:56.111Z,2.10
2018-11-25T00:28:59.495Z,3.00
2018-11-25T00:30:02.912Z,1.50
2018-11-25T00:31:09.721Z,2.40
2018-11-25T00:32:09.441Z,1.70
2018-11-25T00:33:12.851Z,2.03
2018-11-25T00:34:16.265Z,3.70
2018-11-25T00:35:19.838Z,2.87
2018-11-25T00:36:23.219Z,2.20
2018-11-25T00:37:26.595Z,2.90
2018-11-25T00:38:29.996Z,1.67
2018-11-25T00:39:33.422Z,3.00
2018-11-25T00:40:36.791Z,1.63
2018-11-25T00:41:40.194Z,2.67
2018-11-25T00:42:44.365Z,2.37
2018-11-25T00:43:47.832Z,1.93
2018-11-25T00:44:51.249Z,1.57
2018-11-25T00:45:54.648Z,1.83
2018-11-25T00:46:58.061Z,2.47
2018-11-25T00:48:01.477Z,3.20
2018-11-25T00:49:04.889Z,1.20
2018-11-25T00:50:11.040Z,1.80
2018-11-25T00:51:14.468Z,2.10
2018-11-25T00:52:17.971Z,1.40
2018-11-25T00:53:21.393Z,1.53
2018-11-25T00:54:24.849Z,1.57
2018-11-25T00:55:28.287Z,1.23
2018-11-25T00:56:31.672Z,1.70
2018-11-25T00:57:35.051Z,5.53
2018-11-25T00:58:38.466Z,5.13
2018-11-25T00:59:41.863Z,2.00
2018-11-25T01:00:45.293Z,1.70
2018-11-25T01:01:48.868Z,1.37
2018-11-25T01:02:52.319Z,1.60
2018-11-25T01:03:55.696Z,2.90
2018-11-25T01:04:59.208Z,2.80
2018-11-25T01:06:02.604Z,1.50
2018-11-25T01:07:06.170Z,1.30
2018-11-25T01:08:09.587Z,2.50
2018-11-25T01:09:12.974Z,1.60
2018-11-25T01:10:17.374Z,1.93
2018-11-25T01:11:20.856Z,1.43
2018-11-25T01:12:24.286Z,1.80
2018-11-25T01:13:27.653Z,2.77
2018-11-25T01:14:31.095Z,1.77
2018-11-25T01:15:34.514Z,3.30
2018-11-25T01:16:37.926Z,3.00
2018-11-25T01:17:41.369Z,2.00
2018-11-25T01:18:44.795Z,1.97
2018-11-25T01:19:48.818Z,3.93
2018-11-25T01:20:52.310Z,1.83
2018-11-25T01:21:55.701Z,2.57
2018-11-25T01:22:59.100Z,1.60
2018-11-25T01:24:02.478Z,1.40
2018-11-25T01:25:07.097Z,6.00
2018-11-25T01:26:10.545Z,3.40
2018-11-25T01:27:13.956Z,1.40
2018-11-25T01:28:17.355Z,1.47
2018-11-25T01:29:20.756Z,1.37
2018-11-25T01:30:24.163Z,1.03
2018-11-25T01:31:27.597Z,2.13
2018-11-25T01:32:30.990Z,1.57
2018-11-25T01:33:34.385Z,1.73
2018-11-25T01:34:37.797Z,1.30
2018-11-25T01:35:41.194Z,1.27
2018-11-25T01:36:44.611Z,1.33
2018-11-25T01:37:48.061Z,1.50
2018-11-25T01:38:51.510Z,3.47
2018-11-25T01:39:54.904Z,4.30
2018-11-25T01:40:58.335Z,1.93
2018-11-25T01:42:01.764Z,2.23
2018-11-25T01:43:05.553Z,1.27
2018-11-25T01:44:08.971Z,1.80
2018-11-25T01:45:13.574Z,1.20
2018-11-25T01:46:17.003Z,1.40
2018-11-25T01:47:20.437Z,1.27
2018-11-25T01:48:23.838Z,2.37
2018-11-25T01:49:27.291Z,3.37
2018-11-25T01:50:30.734Z,2.20
2018-11-25T01:51:34.127Z,4.30
2018-11-25T01:52:38.217Z,3.70
2018-11-25T01:53:41.639Z,1.27
2018-11-25T01:54:45.338Z,1.20
2018-11-25T01:55:48.747Z,1.70
2018-11-25T01:56:52.260Z,1.47
2018-11-25T01:57:55.778Z,1.20
2018-11-25T01:59:00.624Z,1.27
2018-11-25T02:00:02.707Z,1.37
2018-11-25T02:01:06.580Z,1.70
2018-11-25T02:02:10.057Z,1.40
2018-11-25T02:03:13.510Z,2.23
2018-11-25T02:04:16.973Z,1.23
2018-11-25T02:05:20.414Z,2.30
2018-11-25T02:06:23.814Z,2.20
2018-11-25T02:07:27.247Z,1.50
2018-11-25T02:08:30.761Z,3.80
2018-11-25T02:09:34.158Z,1.53
2018-11-25T02:10:37.697Z,1.37
2018-11-25T02:11:41.069Z,3.13
2018-11-25T02:12:44.537Z,1.50
2018-11-25T02:13:48.011Z,2.87
2018-11-25T02:14:51.406Z,1.17
2018-11-25T02:15:54.796Z,2.53
2018-11-25T02:16:58.225Z,3.03
2018-11-25T02:18:01.666Z,24.07
2018-11-25T02:19:05.099Z,3.33
2018-11-25T02:20:13.878Z,3.87
2018-11-25T02:21:17.309Z,2.00
2018-11-25T02:22:20.748Z,2.33
2018-11-25T02:23:24.394Z,3.50
2018-11-25T02:24:27.807Z,7.23
2018-11-25T02:25:31.313Z,6.43
2018-11-25T02:26:34.819Z,3.27
2018-11-25T02:27:38.202Z,1.30
2018-11-25T02:28:41.584Z,2.03
2018-11-25T02:29:45.082Z,3.23
2018-11-25T02:30:48.516Z,1.13
2018-11-25T02:31:51.901Z,3.93
2018-11-25T02:32:55.315Z,1.53
2018-11-25T02:33:58.713Z,1.63
2018-11-25T02:35:02.211Z,2.67
2018-11-25T02:36:06.011Z,3.63
2018-11-25T02:37:09.390Z,2.73
2018-11-25T02:38:12.865Z,4.70
2018-11-25T02:39:16.270Z,1.60
2018-11-25T02:40:19.724Z,1.10
2018-11-25T02:41:23.154Z,1.37
2018-11-25T02:42:26.545Z,3.63
2018-11-25T02:43:29.909Z,3.53
2018-11-25T02:44:33.333Z,1.40
2018-11-25T02:45:36.749Z,2.43
2018-11-25T02:46:40.146Z,1.20
2018-11-25T02:47:43.602Z,1.63
2018-11-25T02:48:47.023Z,3.00
2018-11-25T02:49:50.447Z,1.47
2018-11-25T02:50:53.887Z,1.67
2018-11-25T02:51:57.313Z,5.23
2018-11-25T02:53:01.997Z,2.27
2018-11-25T02:54:05.520Z,1.33
2018-11-25T02:55:09.008Z,1.70
2018-11-25T02:56:12.445Z,3.07
2018-11-25T02:57:19.987Z,4.23
2018-11-25T02:58:23.415Z,3.63
2018-11-25T02:59:26.845Z,3.50
2018-11-25T03:00:30.245Z,1.40
2018-11-25T03:01:33.667Z,1.47
2018-11-25T03:02:37.107Z,1.83
2018-11-25T03:03:40.512Z,1.83
2018-11-25T03:04:43.903Z,1.60
2018-11-25T03:05:47.335Z,2.23
2018-11-25T03:06:50.803Z,1.63
2018-11-25T03:07:54.244Z,2.03
2018-11-25T03:08:57.641Z,0.97
2018-11-25T03:10:01.282Z,4.33
2018-11-25T03:11:05.057Z,1.03
2018-11-25T03:12:08.511Z,1.33
2018-11-25T03:13:11.930Z,1.20
2018-11-25T03:14:15.343Z,1.60
2018-11-25T03:15:19.046Z,1.30
2018-11-25T03:16:22.441Z,1.83
2018-11-25T03:17:25.847Z,2.13
2018-11-25T03:18:29.223Z,3.40
2018-11-25T03:19:32.604Z,1.13
2018-11-25T03:20:36.045Z,1.43
2018-11-25T03:21:39.445Z,1.30
2018-11-25T03:22:42.839Z,2.27
2018-11-25T03:23:46.313Z,1.40
2018-11-25T03:24:49.718Z,1.13
2018-11-25T03:25:53.130Z,2.37
2018-11-25T03:26:56.566Z,1.87
2018-11-25T03:28:00.032Z,1.63
2018-11-25T03:29:03.480Z,1.67
2018-11-25T03:30:13.224Z,1.97
2018-11-25T03:31:16.668Z,3.13
2018-11-25T03:32:20.179Z,1.77
2018-11-25T03:33:23.575Z,1.30
2018-11-25T03:34:26.931Z,1.30
2018-11-25T03:35:30.377Z,1.20
2018-11-25T03:36:33.791Z,1.30
2018-11-25T03:37:37.255Z,2.10
2018-11-25T03:38:40.687Z,1.40
2018-11-25T03:39:44.108Z,2.00
2018-11-25T03:40:47.528Z,4.93
2018-11-25T03:41:50.953Z,3.10
2018-11-25T03:42:54.365Z,5.73
2018-11-25T03:43:57.770Z,8.33
2018-11-25T03:45:01.156Z,5.93
2018-11-25T03:46:04.592Z,19.57
2018-11-25T03:47:08.064Z,12.43
2018-11-25T03:48:11.532Z,5.30
2018-11-25T03:49:15.041Z,5.37
2018-11-25T03:50:18.453Z,6.27
2018-11-25T03:51:21.867Z,5.00
2018-11-25T03:52:25.412Z,12.20
2018-11-25T03:53:28.848Z,7.90
2018-11-25T03:54:32.278Z,5.67
2018-11-25T03:55:35.701Z,4.90
2018-11-25T03:56:39.139Z,5.83
2018-11-25T03:57:42.567Z,12.97
2018-11-25T03:58:46.049Z,8.13
2018-11-25T03:59:49.462Z,10.60
2018-11-25T04:00:52.875Z,12.43
2018-11-25T04:01:56.310Z,14.10
2018-11-25T04:02:59.785Z,8.40
2018-11-25T04:04:03.193Z,6.17
2018-11-25T04:05:08.044Z,8.20
2018-11-25T04:06:11.474Z,13.93
2018-11-25T04:07:14.886Z,9.43
2018-11-25T04:08:18.305Z,5.80
2018-11-25T04:09:21.721Z,7.03
2018-11-25T04:10:25.173Z,7.43
2018-11-25T04:11:28.598Z,14.40
2018-11-25T04:12:31.975Z,6.90
2018-11-25T04:13:35.361Z,6.07
2018-11-25T04:14:38.771Z,6.10
2018-11-25T04:15:42.190Z,9.50
2018-11-25T04:16:45.613Z,14.97
2018-11-25T04:17:49.356Z,8.23
2018-11-25T04:18:52.831Z,8.57
2018-11-25T04:19:56.269Z,5.37
2018-11-25T04:20:59.806Z,6.10
2018-11-25T04:22:03.242Z,20.03
2018-11-25T04:23:06.767Z,6.37
2018-11-25T04:24:10.201Z,4.53
2018-11-25T04:25:14.122Z,17.67
2018-11-25T04:26:17.591Z,6.67
2018-11-25T04:27:21.046Z,6.63
2018-11-25T04:28:24.456Z,5.80
2018-11-25T04:29:27.853Z,6.70
2018-11-25T04:30:31.229Z,17.47
2018-11-25T04:31:34.719Z,10.73
2018-11-25T04:32:38.151Z,5.40
2018-11-25T04:33:41.660Z,9.03
2018-11-25T04:34:45.131Z,10.53
2018-11-25T04:35:48.627Z,4.27
2018-11-25T04:36:52.084Z,8.00
2018-11-25T04:37:55.473Z,5.73
2018-11-25T04:38:58.882Z,4.70
2018-11-25T04:40:02.323Z,13.30
2018-11-25T04:41:05.913Z,4.67
2018-11-25T04:42:09.370Z,4.33
2018-11-25T04:43:12.766Z,6.83
2018-11-25T04:44:16.241Z,3.90
2018-11-25T04:45:19.638Z,4.60
2018-11-25T04:46:23.056Z,4.30
2018-11-25T04:47:26.461Z,6.10
2018-11-25T04:48:29.881Z,5.17
2018-11-25T04:49:33.254Z,5.63
2018-11-25T04:50:36.693Z,4.90
2018-11-25T04:51:40.132Z,11.43
2018-11-25T04:52:43.580Z,12.53
2018-11-25T04:53:47.015Z,5.40
2018-11-25T04:54:50.398Z,7.03
2018-11-25T04:55:53.774Z,10.47
2018-11-25T04:56:57.173Z,4.80
2018-11-25T04:58:00.594Z,6.40
2018-11-25T04:59:04.040Z,5.50
2018-11-25T05:00:12.163Z,5.13
2018-11-25T05:01:15.587Z,5.67
2018-11-25T05:02:19.099Z,16.80
2018-11-25T05:03:22.627Z,6.60
2018-11-25T05:04:26.020Z,4.50
2018-11-25T05:05:29.452Z,6.20
2018-11-25T05:06:32.857Z,5.83
2018-11-25T05:07:36.309Z,5.37
2018-11-25T05:08:39.704Z,6.90
2018-11-25T05:09:43.177Z,6.27
2018-11-25T05:10:46.618Z,5.43
2018-11-25T05:11:50.036Z,4.20
2018-11-25T05:12:53.475Z,4.07
2018-11-25T05:13:57.012Z,4.27
2018-11-25T05:15:00.367Z,5.47
2018-11-25T05:16:03.905Z,4.07
2018-11-25T05:17:07.373Z,4.60
2018-11-25T05:18:10.801Z,4.80
2018-11-25T05:19:14.192Z,3.93
2018-11-25T05:20:18.345Z,4.50
2018-11-25T05:21:21.775Z,4.37
2018-11-25T05:22:25.360Z,5.40
2018-11-25T05:23:28.793Z,6.30
2018-11-25T05:24:32.189Z,4.90
2018-11-25T05:25:35.675Z,4.70
2018-11-25T05:26:39.057Z,4.13
2018-11-25T05:27:42.592Z,5.30
2018-11-25T05:28:46.106Z,5.00
2018-11-25T05:29:49.503Z,3.90
2018-11-25T05:30:53.015Z,4.13
2018-11-25T05:31:56.411Z,5.50
2018-11-25T05:32:59.834Z,4.87
2018-11-25T05:34:03.226Z,5.83
2018-11-25T05:35:08.297Z,4.80
2018-11-25T05:36:11.757Z,4.23
2018-11-25T05:37:15.212Z,3.47
2018-11-25T05:38:18.629Z,4.77
2018-11-25T05:39:22.062Z,6.10
2018-11-25T05:40:25.503Z,5.93
2018-11-25T05:41:28.901Z,4.33
2018-11-25T05:42:32.427Z,3.60
2018-11-25T05:43:35.850Z,5.30
2018-11-25T05:44:39.275Z,7.27
2018-11-25T05:45:42.648Z,3.47
2018-11-25T05:46:46.105Z,3.43
2018-11-25T05:47:49.586Z,5.33
2018-11-25T05:48:53.024Z,6.53
2018-11-25T05:49:56.437Z,4.90
2018-11-25T05:50:59.861Z,3.43
2018-11-25T05:52:03.308Z,3.80
2018-11-25T05:53:06.713Z,6.50
2018-11-25T05:54:10.115Z,7.30
2018-11-25T05:55:14.154Z,3.10
2018-11-25T05:56:17.557Z,5.60
2018-11-25T05:57:20.966Z,6.40
2018-11-25T05:58:24.589Z,3.67
2018-11-25T05:59:28.008Z,3.73
2018-11-25T06:00:33.319Z,3.57
2018-11-25T06:01:36.734Z,4.40
2018-11-25T06:02:40.163Z,3.20
2018-11-25T06:03:43.598Z,4.33
2018-11-25T06:04:46.956Z,3.07
2018-11-25T06:05:50.372Z,3.83
2018-11-25T06:06:53.764Z,4.27
2018-11-25T06:07:57.147Z,3.20
2018-11-25T06:09:00.590Z,5.73
2018-11-25T06:10:04.116Z,3.50
2018-11-25T06:11:07.541Z,3.30
2018-11-25T06:12:10.970Z,4.03
2018-11-25T06:13:14.370Z,4.90
2018-11-25T06:14:17.768Z,4.70
2018-11-25T06:15:21.197Z,4.07
2018-11-25T06:16:24.618Z,4.90
2018-11-25T06:17:28.031Z,4.50
2018-11-25T06:18:31.407Z,3.90
2018-11-25T06:19:34.820Z,12.93
2018-11-25T06:20:38.187Z,4.20
2018-11-25T06:21:41.605Z,4.80
2018-11-25T06:22:45.467Z,3.27
2018-11-25T06:23:48.854Z,6.83
2018-11-25T06:24:52.255Z,3.57
2018-11-25T06:25:55.677Z,10.80
2018-11-25T06:26:59.132Z,3.40
2018-11-25T06:28:02.603Z,3.57
2018-11-25T06:29:06.309Z,4.90
2018-11-25T06:30:12.806Z,6.23
2018-11-25T06:31:16.845Z,5.00
2018-11-25T06:32:20.457Z,4.43
2018-11-25T06:33:23.865Z,4.10
2018-11-25T06:34:27.242Z,3.27
2018-11-25T06:35:30.646Z,4.20
2018-11-25T06:36:34.003Z,8.37
2018-11-25T06:37:37.423Z,4.40
2018-11-25T06:38:40.784Z,7.30
2018-11-25T06:39:44.169Z,4.37
2018-11-25T06:40:47.699Z,4.43
2018-11-25T06:41:51.089Z,4.87
2018-11-25T06:42:54.489Z,8.00
2018-11-25T06:43:57.916Z,3.90
2018-11-25T06:45:01.326Z,5.00
2018-11-25T06:46:07.299Z,5.13
2018-11-25T06:47:10.720Z,6.27
2018-11-25T06:48:14.177Z,4.40
2018-11-25T06:49:17.570Z,6.87
2018-11-25T06:50:21.005Z,3.90
2018-11-25T06:51:24.467Z,11.33
2018-11-25T06:52:27.878Z,4.57
2018-11-25T06:53:31.287Z,7.60
2018-11-25T06:54:34.717Z,3.87
2018-11-25T06:55:38.847Z,4.00
2018-11-25T06:56:42.302Z,4.40
2018-11-25T06:57:45.961Z,5.07
2018-11-25T06:58:49.381Z,4.27
2018-11-25T06:59:52.791Z,3.30
2018-11-25T07:01:03.139Z,4.63
2018-11-25T07:02:14.907Z,6.60
2018-11-25T07:03:18.306Z,16.93
2018-11-25T07:04:21.728Z,4.33
2018-11-25T07:05:25.148Z,3.37
2018-11-25T07:06:28.843Z,3.47
2018-11-25T07:07:32.247Z,5.33
2018-11-25T07:08:35.650Z,5.30
2018-11-25T07:09:39.092Z,7.23
2018-11-25T07:10:42.506Z,4.90
2018-11-25T07:11:45.886Z,3.90
2018-11-25T07:12:50.521Z,4.00
2018-11-25T07:13:53.936Z,3.70
2018-11-25T07:14:57.376Z,4.40
2018-11-25T07:16:00.742Z,4.27
2018-11-25T07:17:04.119Z,2.97
2018-11-25T07:18:07.526Z,3.27
2018-11-25T07:19:10.996Z,2.93
2018-11-25T07:20:15.539Z,5.70
2018-11-25T07:21:19.011Z,4.40
2018-11-25T07:22:22.387Z,4.07
2018-11-25T07:23:25.742Z,4.47
2018-11-25T07:24:29.222Z,4.17
2018-11-25T07:25:32.624Z,3.20
2018-11-25T07:26:36.035Z,7.30
2018-11-25T07:27:39.499Z,6.50
2018-11-25T07:28:42.938Z,3.27
2018-11-25T07:29:46.406Z,6.20
2018-11-25T07:30:49.895Z,6.43
2018-11-25T07:31:53.655Z,2.57
2018-11-25T07:32:57.257Z,3.57
2018-11-25T07:34:00.628Z,3.27
2018-11-25T07:35:04.058Z,3.77
2018-11-25T07:36:07.564Z,3.90
2018-11-25T07:37:10.959Z,3.50
2018-11-25T07:38:14.406Z,3.17
2018-11-25T07:39:17.846Z,3.57
2018-11-25T07:40:22.076Z,4.00
2018-11-25T07:41:25.490Z,3.50
2018-11-25T07:42:28.880Z,5.70
2018-11-25T07:43:32.301Z,4.10
2018-11-25T07:44:37.559Z,5.23
2018-11-25T07:45:46.163Z,3.70
2018-11-25T07:46:50.478Z,6.50
2018-11-25T07:47:54.217Z,5.27
2018-11-25T07:48:57.786Z,3.20
2018-11-25T07:50:01.422Z,3.60
2018-11-25T07:51:06.452Z,3.90
2018-11-25T07:52:12.484Z,3.10
2018-11-25T07:53:17.067Z,3.03
2018-11-25T07:54:22.541Z,9.43
2018-11-25T07:55:29.445Z,5.00
2018-11-25T07:56:32.915Z,2.80
2018-11-25T07:57:36.362Z,4.83
2018-11-25T07:58:42.266Z,4.10
2018-11-25T07:59:47.175Z,8.27
2018-11-25T08:00:54.887Z,4.60
2018-11-25T08:02:00.782Z,3.30
2018-11-25T08:03:05.073Z,2.70
2018-11-25T08:04:10.044Z,3.47
2018-11-25T08:05:17.685Z,8.10
2018-11-25T08:06:23.684Z,4.10
2018-11-25T08:07:30.185Z,2.90
2018-11-25T08:08:34.563Z,3.40
2018-11-25T08:09:40.569Z,4.10
2018-11-25T08:10:46.170Z,2.53
2018-11-25T08:11:52.484Z,3.20
2018-11-25T08:12:58.427Z,4.40
2018-11-25T08:14:01.835Z,2.90
2018-11-25T08:15:06.054Z,5.27
2018-11-25T08:16:09.548Z,2.87
2018-11-25T08:17:13.029Z,3.80
2018-11-25T08:18:16.518Z,3.80
2018-11-25T08:19:19.937Z,3.40
2018-11-25T08:20:23.565Z,4.27
2018-11-25T08:21:27.004Z,4.57
2018-11-25T08:22:30.411Z,3.40
2018-11-25T08:23:33.836Z,3.07
2018-11-25T08:24:37.223Z,3.30
2018-11-25T08:25:40.660Z,3.30
2018-11-25T08:26:44.105Z,3.97
2018-11-25T08:27:47.656Z,3.40
2018-11-25T08:28:51.058Z,3.10
2018-11-25T08:29:54.478Z,3.97
2018-11-25T08:30:57.877Z,2.97
2018-11-25T08:32:01.278Z,4.03
2018-11-25T08:33:04.798Z,3.03
2018-11-25T08:34:08.198Z,3.30
2018-11-25T08:35:12.246Z,2.60
2018-11-25T08:36:15.651Z,4.40
2018-11-25T08:37:19.125Z,5.73
2018-11-25T08:38:22.521Z,6.63
2018-11-25T08:39:25.980Z,4.10
2018-11-25T08:40:29.518Z,3.87
2018-11-25T08:41:32.913Z,6.40
2018-11-25T08:42:36.432Z,3.70
2018-11-25T08:43:39.868Z,8.53
2018-11-25T08:44:43.345Z,4.37
2018-11-25T08:45:46.787Z,17.73
2018-11-25T08:46:50.391Z,4.43
2018-11-25T08:47:53.833Z,4.83
2018-11-25T08:48:57.262Z,11.53
2018-11-25T08:50:00.745Z,17.50
2018-11-25T08:51:04.437Z,8.07
2018-11-25T08:52:07.882Z,8.30
2018-11-25T08:53:11.336Z,12.97
2018-11-25T08:54:14.856Z,12.50
2018-11-25T08:55:19.462Z,15.17
2018-11-25T08:56:22.873Z,9.37
2018-11-25T08:57:26.311Z,12.63
2018-11-25T08:58:29.739Z,10.17
2018-11-25T08:59:33.203Z,15.10
2018-11-25T09:00:36.630Z,10.03
2018-11-25T09:01:40.035Z,12.07
2018-11-25T09:02:43.467Z,11.50
2018-11-25T09:03:47.446Z,11.63
2018-11-25T09:04:50.886Z,13.10
2018-11-25T09:05:54.303Z,10.97
2018-11-25T09:06:57.703Z,10.00
2018-11-25T09:08:01.108Z,12.53
2018-11-25T09:09:06.361Z,11.07
2018-11-25T09:10:12.102Z,9.87
2018-11-25T09:11:15.564Z,13.03
2018-11-25T09:12:18.988Z,8.93
2018-11-25T09:13:22.418Z,12.10
2018-11-25T09:14:25.851Z,12.33
2018-11-25T09:15:30.600Z,10.90
2018-11-25T09:16:34.016Z,9.93
2018-11-25T09:17:37.411Z,12.20
2018-11-25T09:18:40.816Z,14.67
2018-11-25T09:19:44.221Z,10.40
2018-11-25T09:20:47.664Z,13.60
2018-11-25T09:21:51.114Z,12.07
2018-11-25T09:22:54.513Z,11.23
2018-11-25T09:23:58.004Z,13.53
2018-11-25T09:25:01.404Z,10.40
2018-11-25T09:26:04.913Z,13.80
2018-11-25T09:27:08.309Z,11.33
2018-11-25T09:28:11.679Z,11.50
2018-11-25T09:29:15.103Z,11.57
2018-11-25T09:30:22.756Z,11.83
2018-11-25T09:31:26.194Z,12.43
2018-11-25T09:32:29.615Z,10.17
2018-11-25T09:33:33.048Z,15.53
2018-11-25T09:34:36.431Z,11.17
2018-11-25T09:35:39.840Z,12.50
2018-11-25T09:36:43.280Z,10.70
2018-11-25T09:37:46.761Z,9.70
2018-11-25T09:38:50.207Z,10.97
2018-11-25T09:39:53.683Z,15.53
2018-11-25T09:40:59.316Z,12.43
2018-11-25T09:42:00.614Z,10.80
2018-11-25T09:43:04.134Z,10.93
2018-11-25T09:44:07.568Z,12.27
2018-11-25T09:45:14.245Z,12.20
2018-11-25T09:46:17.672Z,12.23
2018-11-25T09:47:21.119Z,10.33
2018-11-25T09:48:25.142Z,11.17
2018-11-25T09:49:28.555Z,13.83
2018-11-25T09:50:31.959Z,14.37
2018-11-25T09:51:35.371Z,12.20
2018-11-25T09:52:38.933Z,11.20
2018-11-25T09:53:42.349Z,11.70
2018-11-25T09:54:45.872Z,10.83
2018-11-25T09:55:49.353Z,10.83
2018-11-25T09:56:53.196Z,15.03
2018-11-25T09:57:58.073Z,15.03
2018-11-25T09:59:01.588Z,13.73
2018-11-25T10:00:37.080Z,10.50
2018-11-25T10:01:40.524Z,15.70
2018-11-25T10:02:43.945Z,13.20
2018-11-25T10:03:47.406Z,10.70
2018-11-25T10:04:50.868Z,12.33
2018-11-25T10:05:54.293Z,10.80
2018-11-25T10:06:57.705Z,9.10
2018-11-25T10:08:01.124Z,11.03
2018-11-25T10:09:06.517Z,11.93
2018-11-25T10:10:13.406Z,12.17
2018-11-25T10:11:16.918Z,13.10
2018-11-25T10:12:20.301Z,11.30
2018-11-25T10:13:24.327Z,11.53
2018-11-25T10:14:27.738Z,11.07
2018-11-25T10:15:31.460Z,9.97
2018-11-25T10:16:34.909Z,14.00
2018-11-25T10:17:38.389Z,11.63
2018-11-25T10:18:43.409Z,10.43
2018-11-25T10:19:46.927Z,11.10
2018-11-25T10:20:51.046Z,13.43
2018-11-25T10:21:54.486Z,12.30
2018-11-25T10:22:57.875Z,13.90
2018-11-25T10:24:01.267Z,13.80
2018-11-25T10:25:05.116Z,10.57
2018-11-25T10:26:08.702Z,12.17
2018-11-25T10:27:12.190Z,12.60
2018-11-25T10:28:15.634Z,12.53
2018-11-25T10:29:19.031Z,12.30
2018-11-25T10:30:25.690Z,11.03
2018-11-25T10:31:29.728Z,11.87
2018-11-25T10:32:33.417Z,10.50
2018-11-25T10:33:36.807Z,12.80
2018-11-25T10:34:40.206Z,19.13
2018-11-25T10:35:43.626Z,15.53
2018-11-25T10:36:47.057Z,11.60
2018-11-25T10:37:50.422Z,12.57
2018-11-25T10:38:53.802Z,9.90
2018-11-25T10:39:57.215Z,10.00
2018-11-25T10:41:00.617Z,11.87
2018-11-25T10:42:04.963Z,14.60
2018-11-25T10:43:08.436Z,17.27
2018-11-25T10:44:11.898Z,16.90
2018-11-25T10:45:17.222Z,16.40
2018-11-25T10:46:20.652Z,16.53
2018-11-25T10:47:24.170Z,13.90
2018-11-25T10:48:27.621Z,15.33
2018-11-25T10:49:31.006Z,21.37
2018-11-25T10:50:34.438Z,16.47
2018-11-25T10:51:37.881Z,14.20
2018-11-25T10:52:41.387Z,15.13
2018-11-25T10:53:44.816Z,17.00
2018-11-25T10:54:48.328Z,14.03
2018-11-25T10:55:51.824Z,17.90
2018-11-25T10:56:55.285Z,22.43
2018-11-25T10:57:58.735Z,17.00
2018-11-25T10:59:02.238Z,17.70
2018-11-25T11:00:21.013Z,21.00
2018-11-25T11:01:29.634Z,15.97
2018-11-25T11:02:38.419Z,19.20
2018-11-25T11:03:47.124Z,20.77
2018-11-25T11:04:55.941Z,27.37
2018-11-25T11:06:04.787Z,29.50
2018-11-25T11:07:13.911Z,28.10
2018-11-25T11:08:17.494Z,32.70
2018-11-25T11:09:20.864Z,30.60
2018-11-25T11:10:24.259Z,32.17
2018-11-25T11:11:27.678Z,37.53
2018-11-25T11:12:31.143Z,35.70
2018-11-25T11:13:34.630Z,33.90
2018-11-25T11:14:38.018Z,40.47
2018-11-25T11:15:41.462Z,40.20
2018-11-25T11:16:44.912Z,36.73
2018-11-25T11:17:48.463Z,38.73
2018-11-25T11:18:51.916Z,37.53
2018-11-25T11:19:55.349Z,41.20
2018-11-25T11:20:58.743Z,37.90
2018-11-25T11:22:02.187Z,36.93
2018-11-25T11:23:06.130Z,45.60
2018-11-25T11:24:09.634Z,37.43
2018-11-25T11:25:13.094Z,37.63
2018-11-25T11:26:27.065Z,44.23
2018-11-25T11:27:30.500Z,37.20
2018-11-25T11:28:33.995Z,44.57
2018-11-25T11:29:37.456Z,40.97
2018-11-25T11:30:40.871Z,39.80
2018-11-25T11:31:44.359Z,42.37
2018-11-25T11:32:49.529Z,38.90
2018-11-25T11:33:53.126Z,40.27
2018-11-25T11:34:56.619Z,40.10
2018-11-25T11:36:00.322Z,32.70
2018-11-25T11:37:04.141Z,38.77
2018-11-25T11:38:07.734Z,40.33
2018-11-25T11:39:11.346Z,35.37
2018-11-25T11:40:15.715Z,37.60
2018-11-25T11:41:19.178Z,29.47
2018-11-25T11:42:28.547Z,34.80
2018-11-25T11:43:26.094Z,37.33
2018-11-25T11:44:29.516Z,38.83
2018-11-25T11:45:32.961Z,37.67
2018-11-25T11:46:36.375Z,33.83
2018-11-25T11:47:39.816Z,30.20
2018-11-25T11:48:43.244Z,35.53
2018-11-25T11:49:46.727Z,37.90
2018-11-25T11:50:50.162Z,33.33
2018-11-25T11:51:53.638Z,30.97
2018-11-25T11:52:57.072Z,34.60
2018-11-25T11:54:00.486Z,32.47
2018-11-25T11:55:03.976Z,34.30
2018-11-25T11:56:07.386Z,40.10
2018-11-25T11:57:10.755Z,28.50
2018-11-25T11:58:14.187Z,30.80
2018-11-25T11:59:17.599Z,37.83
2018-11-25T12:00:27.306Z,26.30
2018-11-25T12:01:30.733Z,32.10
2018-11-25T12:02:34.231Z,34.00
2018-11-25T12:03:37.701Z,29.07
2018-11-25T12:04:41.142Z,34.60
2018-11-25T12:05:44.825Z,37.90
2018-11-25T12:06:48.282Z,29.83
2018-11-25T12:07:51.730Z,29.10
2018-11-25T12:08:55.133Z,31.40
2018-11-25T12:09:58.569Z,28.43
2018-11-25T12:11:02.029Z,28.77
2018-11-25T12:12:05.494Z,32.47
2018-11-25T12:13:08.930Z,27.03
2018-11-25T12:14:12.393Z,32.30
2018-11-25T12:15:30.229Z,30.47
2018-11-25T12:16:27.409Z,28.20
2018-11-25T12:17:30.855Z,25.97
2018-11-25T12:18:34.293Z,27.57
2018-11-25T12:19:37.699Z,28.30
2018-11-25T12:20:41.216Z,26.60
2018-11-25T12:21:44.752Z,30.80
2018-11-25T12:22:48.902Z,29.67
2018-11-25T12:23:52.308Z,32.70
2018-11-25T12:24:55.717Z,27.17
2018-11-25T12:25:59.122Z,25.03
2018-11-25T12:27:02.617Z,28.50
2018-11-25T12:28:06.716Z,32.47
2018-11-25T12:29:10.120Z,28.83
2018-11-25T12:30:14.731Z,26.50
2018-11-25T12:31:18.193Z,22.87
2018-11-25T12:32:21.597Z,25.23
2018-11-25T12:33:25.038Z,24.50
2018-11-25T12:34:28.468Z,26.27
2018-11-25T12:35:31.894Z,25.03
2018-11-25T12:36:35.287Z,24.00
2018-11-25T12:37:38.758Z,27.90
2018-11-25T12:38:42.258Z,22.90
2018-11-25T12:39:45.693Z,27.00
2018-11-25T12:40:49.300Z,26.43
2018-11-25T12:41:52.692Z,32.87
2018-11-25T12:42:58.477Z,30.77
2018-11-25T12:44:01.961Z,26.67
2018-11-25T12:45:06.478Z,28.80
2018-11-25T12:46:09.932Z,25.00
2018-11-25T12:47:13.365Z,24.10
2018-11-25T12:48:16.901Z,40.90
2018-11-25T12:49:20.350Z,28.30
2018-11-25T12:50:25.807Z,25.07
2018-11-25T12:51:29.674Z,23.93
2018-11-25T12:52:33.224Z,20.90
2018-11-25T12:53:36.731Z,34.27
2018-11-25T12:54:40.213Z,24.17
2018-11-25T12:55:43.869Z,26.33
2018-11-25T12:56:51.825Z,25.40
2018-11-25T12:57:50.914Z,26.70
2018-11-25T12:58:54.369Z,22.87
2018-11-25T12:59:57.847Z,30.03
2018-11-25T13:01:01.277Z,32.77
2018-11-25T13:02:04.750Z,23.97
2018-11-25T13:03:10.495Z,20.57
2018-11-25T13:04:13.965Z,23.97
2018-11-25T13:05:17.371Z,25.33
2018-11-25T13:06:20.849Z,28.50
2018-11-25T13:07:24.257Z,25.43
2018-11-25T13:08:27.712Z,26.03
2018-11-25T13:09:31.159Z,21.43
2018-11-25T13:10:34.689Z,20.97
2018-11-25T13:11:38.113Z,30.13
2018-11-25T13:12:41.550Z,22.60
2018-11-25T13:13:45.006Z,21.87
2018-11-25T13:14:49.394Z,20.50
2018-11-25T13:15:52.843Z,20.87
2018-11-25T13:16:56.203Z,20.47
2018-11-25T13:17:59.591Z,22.97
2018-11-25T13:19:03.023Z,25.10
2018-11-25T13:20:09.446Z,20.87
2018-11-25T13:21:12.864Z,18.93
2018-11-25T13:22:16.368Z,23.13
2018-11-25T13:23:19.800Z,21.60
2018-11-25T13:24:23.173Z,22.43
2018-11-25T13:25:26.648Z,19.60
2018-11-25T13:26:30.116Z,20.97
2018-11-25T13:27:33.657Z,23.00
2018-11-25T13:28:37.057Z,19.30
2018-11-25T13:29:40.485Z,21.67
2018-11-25T13:30:44.850Z,18.87
2018-11-25T13:31:48.227Z,26.83
2018-11-25T13:32:52.916Z,21.47
2018-11-25T13:33:56.471Z,18.03
2018-11-25T13:35:00.071Z,20.37
2018-11-25T13:36:04.087Z,22.43
2018-11-25T13:37:07.509Z,20.90
2018-11-25T13:38:12.532Z,20.03
2018-11-25T13:39:16.389Z,19.80
2018-11-25T13:40:19.858Z,19.53
2018-11-25T13:41:23.287Z,22.10
2018-11-25T13:42:26.792Z,17.03
2018-11-25T13:43:30.228Z,19.47
2018-11-25T13:44:45.781Z,18.67
2018-11-25T13:45:49.259Z,19.40
2018-11-25T13:46:52.745Z,19.77
2018-11-25T13:47:56.195Z,18.10
2018-11-25T13:48:59.640Z,17.83
2018-11-25T13:50:03.168Z,20.27
2018-11-25T13:51:09.200Z,18.13
2018-11-25T13:52:12.757Z,19.30
2018-11-25T13:53:16.281Z,21.20
2018-11-25T13:54:20.324Z,18.37
2018-11-25T13:55:25.530Z,22.00
2018-11-25T13:56:29.100Z,17.43
2018-11-25T13:57:32.565Z,21.17
2018-11-25T13:58:36.474Z,17.37